sensor_id;sensor_type;location;lat;lon;timestamp;P1;durP1;ratioP1;P2;durP2;ratioP2
15899;SDS011;8048;50.644;6.184;2022-11-15T00:00:25;7.90;;;7.27;;
15899;SDS011;8048;50.644;6.184;2022-11-15T00:02:52;7.13;;;6.53;;
15899;SDS011;8048;50.644;6.184;2022-11-15T00:05:17;8.80;;;6.83;;
15899;SDS011;8048;50.644;6.184;2022-11-15T00:07:43;6.20;;;5.67;;
15899;SDS011;8048;50.644;6.184;2022-11-15T00:10:09;9.93;;;5.97;;
15899;SDS011;8048;50.644;6.184;2022-11-15T00:12:34;6.67;;;6.10;;
15899;SDS011;8048;50.644;6.184;2022-11-15T00:15:00;7.80;;;7.20;;
15899;SDS011;8048;50.644;6.184;2022-11-15T00:17:25;7.13;;;6.53;;
15899;SDS011;8048;50.644;6.184;2022-11-15T00:19:51;6.93;;;6.23;;
15899;SDS011;8048;50.644;6.184;2022-11-15T00:22:16;7.83;;;7.13;;
15899;SDS011;8048;50.644;6.184;2022-11-15T00:24:42;6.90;;;6.40;;
15899;SDS011;8048;50.644;6.184;2022-11-15T00:27:08;7.20;;;6.60;;
15899;SDS011;8048;50.644;6.184;2022-11-15T00:29:33;7.33;;;6.63;;
15899;SDS011;8048;50.644;6.184;2022-11-15T00:31:59;9.93;;;8.00;;
15899;SDS011;8048;50.644;6.184;2022-11-15T00:34:25;8.00;;;6.90;;
15899;SDS011;8048;50.644;6.184;2022-11-15T00:36:50;8.17;;;7.37;;
15899;SDS011;8048;50.644;6.184;2022-11-15T00:39:16;6.23;;;5.80;;
15899;SDS011;8048;50.644;6.184;2022-11-15T00:41:41;10.80;;;9.80;;
15899;SDS011;8048;50.644;6.184;2022-11-15T00:44:07;8.00;;;7.20;;
15899;SDS011;8048;50.644;6.184;2022-11-15T00:46:32;8.30;;;7.70;;
15899;SDS011;8048;50.644;6.184;2022-11-15T00:48:58;7.50;;;6.07;;
15899;SDS011;8048;50.644;6.184;2022-11-15T00:51:24;7.37;;;6.67;;
15899;SDS011;8048;50.644;6.184;2022-11-15T00:53:49;6.50;;;6.10;;
15899;SDS011;8048;50.644;6.184;2022-11-15T00:56:15;9.17;;;7.60;;
15899;SDS011;8048;50.644;6.184;2022-11-15T00:58:40;7.93;;;7.23;;
15899;SDS011;8048;50.644;6.184;2022-11-15T01:01:07;7.97;;;7.27;;
15899;SDS011;8048;50.644;6.184;2022-11-15T01:03:34;8.83;;;8.03;;
15899;SDS011;8048;50.644;6.184;2022-11-15T01:06:00;7.07;;;6.40;;
15899;SDS011;8048;50.644;6.184;2022-11-15T01:08:26;8.13;;;5.93;;
15899;SDS011;8048;50.644;6.184;2022-11-15T01:10:52;9.20;;;8.00;;
15899;SDS011;8048;50.644;6.184;2022-11-15T01:13:17;8.63;;;7.83;;
15899;SDS011;8048;50.644;6.184;2022-11-15T01:15:43;8.73;;;7.40;;
15899;SDS011;8048;50.644;6.184;2022-11-15T01:18:08;9.50;;;6.33;;
15899;SDS011;8048;50.644;6.184;2022-11-15T01:20:38;6.70;;;6.20;;
15899;SDS011;8048;50.644;6.184;2022-11-15T01:23:05;9.40;;;7.10;;
15899;SDS011;8048;50.644;6.184;2022-11-15T01:25:31;7.30;;;6.40;;
15899;SDS011;8048;50.644;6.184;2022-11-15T01:27:56;6.50;;;6.00;;
15899;SDS011;8048;50.644;6.184;2022-11-15T01:30:22;8.50;;;6.80;;
15899;SDS011;8048;50.644;6.184;2022-11-15T01:32:47;8.17;;;6.93;;
15899;SDS011;8048;50.644;6.184;2022-11-15T01:35:13;7.67;;;6.87;;
15899;SDS011;8048;50.644;6.184;2022-11-15T01:37:38;9.73;;;8.70;;
15899;SDS011;8048;50.644;6.184;2022-11-15T01:40:04;8.80;;;7.10;;
15899;SDS011;8048;50.644;6.184;2022-11-15T01:42:30;9.13;;;8.17;;
15899;SDS011;8048;50.644;6.184;2022-11-15T01:44:56;8.10;;;7.07;;
15899;SDS011;8048;50.644;6.184;2022-11-15T01:47:23;8.30;;;6.70;;
15899;SDS011;8048;50.644;6.184;2022-11-15T01:49:56;6.90;;;5.87;;
15899;SDS011;8048;50.644;6.184;2022-11-15T01:52:29;6.63;;;5.83;;
15899;SDS011;8048;50.644;6.184;2022-11-15T01:55:09;9.00;;;6.60;;
15899;SDS011;8048;50.644;6.184;2022-11-15T01:57:40;5.73;;;5.30;;
15899;SDS011;8048;50.644;6.184;2022-11-15T02:00:10;7.33;;;6.60;;
15899;SDS011;8048;50.644;6.184;2022-11-15T02:02:36;6.07;;;5.47;;
15899;SDS011;8048;50.644;6.184;2022-11-15T02:05:02;5.87;;;4.63;;
15899;SDS011;8048;50.644;6.184;2022-11-15T02:07:29;6.00;;;5.40;;
15899;SDS011;8048;50.644;6.184;2022-11-15T02:10:01;8.50;;;6.50;;
15899;SDS011;8048;50.644;6.184;2022-11-15T02:12:31;6.83;;;5.90;;
15899;SDS011;8048;50.644;6.184;2022-11-15T02:14:57;6.20;;;5.60;;
15899;SDS011;8048;50.644;6.184;2022-11-15T02:25:26;6.53;;;5.13;;
15899;SDS011;8048;50.644;6.184;2022-11-15T02:30:41;5.80;;;5.30;;
15899;SDS011;8048;50.644;6.184;2022-11-15T02:33:38;4.90;;;4.50;;
15899;SDS011;8048;50.644;6.184;2022-11-15T02:41:45;7.30;;;6.70;;
15899;SDS011;8048;50.644;6.184;2022-11-15T02:44:52;5.30;;;4.90;;
15899;SDS011;8048;50.644;6.184;2022-11-15T02:47:20;4.90;;;4.37;;
15899;SDS011;8048;50.644;6.184;2022-11-15T02:49:48;4.90;;;4.50;;
15899;SDS011;8048;50.644;6.184;2022-11-15T02:52:16;10.00;;;4.97;;
15899;SDS011;8048;50.644;6.184;2022-11-15T02:54:57;4.63;;;4.33;;
15899;SDS011;8048;50.644;6.184;2022-11-15T02:57:29;3.90;;;3.60;;
15899;SDS011;8048;50.644;6.184;2022-11-15T03:00:12;3.77;;;3.53;;
15899;SDS011;8048;50.644;6.184;2022-11-15T03:10:46;3.20;;;3.07;;
15899;SDS011;8048;50.644;6.184;2022-11-15T03:16:10;3.20;;;3.00;;
15899;SDS011;8048;50.644;6.184;2022-11-15T03:18:41;2.60;;;2.50;;
15899;SDS011;8048;50.644;6.184;2022-11-15T03:21:10;2.83;;;2.73;;
15899;SDS011;8048;50.644;6.184;2022-11-15T03:23:38;3.13;;;2.80;;
15899;SDS011;8048;50.644;6.184;2022-11-15T03:26:07;3.40;;;3.20;;
15899;SDS011;8048;50.644;6.184;2022-11-15T03:28:39;3.00;;;2.87;;
15899;SDS011;8048;50.644;6.184;2022-11-15T03:31:14;2.13;;;2.03;;
15899;SDS011;8048;50.644;6.184;2022-11-15T03:34:03;2.50;;;2.40;;
15899;SDS011;8048;50.644;6.184;2022-11-15T03:36:32;2.10;;;2.10;;
15899;SDS011;8048;50.644;6.184;2022-11-15T03:39:00;2.37;;;2.27;;
15899;SDS011;8048;50.644;6.184;2022-11-15T03:41:31;2.13;;;2.03;;
15899;SDS011;8048;50.644;6.184;2022-11-15T03:44:08;2.03;;;1.93;;
15899;SDS011;8048;50.644;6.184;2022-11-15T03:47:00;2.50;;;2.40;;
15899;SDS011;8048;50.644;6.184;2022-11-15T03:49:36;3.00;;;2.90;;
15899;SDS011;8048;50.644;6.184;2022-11-15T03:52:07;2.70;;;2.60;;
15899;SDS011;8048;50.644;6.184;2022-11-15T03:54:36;1.90;;;1.80;;
15899;SDS011;8048;50.644;6.184;2022-11-15T03:57:01;2.10;;;2.00;;
15899;SDS011;8048;50.644;6.184;2022-11-15T03:59:27;2.10;;;2.00;;
15899;SDS011;8048;50.644;6.184;2022-11-15T04:01:52;2.27;;;2.10;;
15899;SDS011;8048;50.644;6.184;2022-11-15T04:04:18;1.67;;;1.67;;
15899;SDS011;8048;50.644;6.184;2022-11-15T04:06:43;1.90;;;1.87;;
15899;SDS011;8048;50.644;6.184;2022-11-15T04:09:09;2.40;;;2.30;;
15899;SDS011;8048;50.644;6.184;2022-11-15T04:11:35;2.43;;;2.33;;
15899;SDS011;8048;50.644;6.184;2022-11-15T04:14:00;2.40;;;2.30;;
15899;SDS011;8048;50.644;6.184;2022-11-15T04:16:26;2.30;;;2.20;;
15899;SDS011;8048;50.644;6.184;2022-11-15T04:18:51;1.97;;;1.87;;
15899;SDS011;8048;50.644;6.184;2022-11-15T04:21:37;2.20;;;2.10;;
15899;SDS011;8048;50.644;6.184;2022-11-15T04:24:21;2.20;;;2.10;;
15899;SDS011;8048;50.644;6.184;2022-11-15T04:26:46;1.93;;;1.83;;
15899;SDS011;8048;50.644;6.184;2022-11-15T04:29:12;2.40;;;2.30;;
15899;SDS011;8048;50.644;6.184;2022-11-15T04:31:56;2.43;;;2.33;;
15899;SDS011;8048;50.644;6.184;2022-11-15T04:34:21;3.10;;;3.00;;
15899;SDS011;8048;50.644;6.184;2022-11-15T04:36:47;2.40;;;2.30;;
15899;SDS011;8048;50.644;6.184;2022-11-15T04:39:31;2.67;;;2.57;;
15899;SDS011;8048;50.644;6.184;2022-11-15T04:41:56;3.00;;;2.70;;
15899;SDS011;8048;50.644;6.184;2022-11-15T04:44:22;2.30;;;2.20;;
15899;SDS011;8048;50.644;6.184;2022-11-15T04:46:47;3.00;;;2.80;;
15899;SDS011;8048;50.644;6.184;2022-11-15T04:49:13;2.20;;;2.00;;
15899;SDS011;8048;50.644;6.184;2022-11-15T04:51:38;2.43;;;2.13;;
15899;SDS011;8048;50.644;6.184;2022-11-15T04:54:04;2.57;;;2.37;;
15899;SDS011;8048;50.644;6.184;2022-11-15T04:56:30;2.03;;;2.00;;
15899;SDS011;8048;50.644;6.184;2022-11-15T04:58:55;10.73;;;2.47;;
15899;SDS011;8048;50.644;6.184;2022-11-15T05:01:20;2.57;;;2.43;;
15899;SDS011;8048;50.644;6.184;2022-11-15T05:03:46;2.23;;;2.13;;
15899;SDS011;8048;50.644;6.184;2022-11-15T05:06:30;2.20;;;2.10;;
15899;SDS011;8048;50.644;6.184;2022-11-15T05:08:56;2.80;;;2.20;;
15899;SDS011;8048;50.644;6.184;2022-11-15T05:11:22;2.67;;;2.57;;
15899;SDS011;8048;50.644;6.184;2022-11-15T05:13:48;1.90;;;1.90;;
15899;SDS011;8048;50.644;6.184;2022-11-15T05:16:13;2.57;;;2.37;;
15899;SDS011;8048;50.644;6.184;2022-11-15T05:18:39;2.00;;;1.90;;
15899;SDS011;8048;50.644;6.184;2022-11-15T05:21:09;2.40;;;2.30;;
15899;SDS011;8048;50.644;6.184;2022-11-15T05:23:36;2.17;;;2.07;;
15899;SDS011;8048;50.644;6.184;2022-11-15T05:26:03;1.80;;;1.80;;
15899;SDS011;8048;50.644;6.184;2022-11-15T05:28:29;2.33;;;2.23;;
15899;SDS011;8048;50.644;6.184;2022-11-15T05:31:28;2.10;;;2.00;;
15899;SDS011;8048;50.644;6.184;2022-11-15T05:33:48;2.80;;;2.60;;
15899;SDS011;8048;50.644;6.184;2022-11-15T05:39:00;2.90;;;2.80;;
15899;SDS011;8048;50.644;6.184;2022-11-15T05:41:30;2.70;;;2.50;;
15899;SDS011;8048;50.644;6.184;2022-11-15T05:44:02;3.30;;;3.10;;
15899;SDS011;8048;50.644;6.184;2022-11-15T05:46:31;2.33;;;2.23;;
15899;SDS011;8048;50.644;6.184;2022-11-15T05:48:58;3.00;;;2.50;;
15899;SDS011;8048;50.644;6.184;2022-11-15T05:51:24;2.90;;;2.70;;
15899;SDS011;8048;50.644;6.184;2022-11-15T05:53:53;3.50;;;2.70;;
15899;SDS011;8048;50.644;6.184;2022-11-15T05:56:22;2.93;;;2.73;;
15899;SDS011;8048;50.644;6.184;2022-11-15T05:58:48;2.20;;;2.10;;
15899;SDS011;8048;50.644;6.184;2022-11-15T06:01:14;2.30;;;2.20;;
15899;SDS011;8048;50.644;6.184;2022-11-15T06:03:40;2.70;;;2.60;;
15899;SDS011;8048;50.644;6.184;2022-11-15T06:06:05;2.70;;;2.60;;
15899;SDS011;8048;50.644;6.184;2022-11-15T06:08:31;2.53;;;2.33;;
15899;SDS011;8048;50.644;6.184;2022-11-15T06:10:56;2.90;;;2.70;;
15899;SDS011;8048;50.644;6.184;2022-11-15T06:13:27;2.80;;;2.63;;
15899;SDS011;8048;50.644;6.184;2022-11-15T06:15:55;2.67;;;2.47;;
15899;SDS011;8048;50.644;6.184;2022-11-15T06:18:21;2.50;;;2.40;;
15899;SDS011;8048;50.644;6.184;2022-11-15T06:20:46;2.03;;;2.00;;
15899;SDS011;8048;50.644;6.184;2022-11-15T06:23:12;2.33;;;2.23;;
15899;SDS011;8048;50.644;6.184;2022-11-15T06:25:38;2.53;;;2.43;;
15899;SDS011;8048;50.644;6.184;2022-11-15T06:28:04;2.30;;;2.20;;
15899;SDS011;8048;50.644;6.184;2022-11-15T06:30:29;2.60;;;2.40;;
15899;SDS011;8048;50.644;6.184;2022-11-15T06:32:59;4.50;;;2.53;;
15899;SDS011;8048;50.644;6.184;2022-11-15T06:35:29;2.23;;;2.13;;
15899;SDS011;8048;50.644;6.184;2022-11-15T06:37:55;2.23;;;2.13;;
15899;SDS011;8048;50.644;6.184;2022-11-15T06:40:21;2.53;;;2.27;;
15899;SDS011;8048;50.644;6.184;2022-11-15T06:42:47;4.80;;;3.50;;
15899;SDS011;8048;50.644;6.184;2022-11-15T06:45:12;2.50;;;2.40;;
15899;SDS011;8048;50.644;6.184;2022-11-15T06:47:44;2.40;;;2.30;;
15899;SDS011;8048;50.644;6.184;2022-11-15T06:50:11;3.00;;;2.80;;
15899;SDS011;8048;50.644;6.184;2022-11-15T06:52:37;2.40;;;2.20;;
15899;SDS011;8048;50.644;6.184;2022-11-15T06:55:02;2.70;;;2.50;;
15899;SDS011;8048;50.644;6.184;2022-11-15T06:57:28;2.17;;;2.07;;
15899;SDS011;8048;50.644;6.184;2022-11-15T06:59:54;2.57;;;2.47;;
15899;SDS011;8048;50.644;6.184;2022-11-15T07:02:19;2.40;;;2.23;;
15899;SDS011;8048;50.644;6.184;2022-11-15T07:04:45;5.90;;;2.60;;
15899;SDS011;8048;50.644;6.184;2022-11-15T07:07:10;2.20;;;2.10;;
15899;SDS011;8048;50.644;6.184;2022-11-15T07:09:36;2.40;;;2.30;;
15899;SDS011;8048;50.644;6.184;2022-11-15T07:12:01;3.53;;;2.50;;
15899;SDS011;8048;50.644;6.184;2022-11-15T07:14:27;2.50;;;2.40;;
15899;SDS011;8048;50.644;6.184;2022-11-15T07:16:52;2.13;;;2.03;;
15899;SDS011;8048;50.644;6.184;2022-11-15T07:19:18;2.03;;;1.93;;
15899;SDS011;8048;50.644;6.184;2022-11-15T07:21:43;2.50;;;2.30;;
15899;SDS011;8048;50.644;6.184;2022-11-15T07:24:09;1.93;;;1.90;;
15899;SDS011;8048;50.644;6.184;2022-11-15T07:26:34;3.90;;;1.97;;
15899;SDS011;8048;50.644;6.184;2022-11-15T07:29:00;2.10;;;2.00;;
15899;SDS011;8048;50.644;6.184;2022-11-15T07:31:25;2.20;;;2.10;;
15899;SDS011;8048;50.644;6.184;2022-11-15T07:33:51;2.83;;;2.60;;
15899;SDS011;8048;50.644;6.184;2022-11-15T07:36:16;3.17;;;1.90;;
15899;SDS011;8048;50.644;6.184;2022-11-15T07:38:42;2.10;;;2.00;;
15899;SDS011;8048;50.644;6.184;2022-11-15T07:41:08;2.00;;;1.90;;
15899;SDS011;8048;50.644;6.184;2022-11-15T07:43:33;3.33;;;2.20;;
15899;SDS011;8048;50.644;6.184;2022-11-15T07:46:03;1.73;;;1.73;;
15899;SDS011;8048;50.644;6.184;2022-11-15T07:48:34;2.00;;;1.90;;
15899;SDS011;8048;50.644;6.184;2022-11-15T07:51:05;2.00;;;1.90;;
15899;SDS011;8048;50.644;6.184;2022-11-15T07:53:31;4.07;;;1.97;;
15899;SDS011;8048;50.644;6.184;2022-11-15T07:55:57;2.30;;;2.20;;
15899;SDS011;8048;50.644;6.184;2022-11-15T07:58:22;2.37;;;2.27;;
15899;SDS011;8048;50.644;6.184;2022-11-15T08:00:48;2.20;;;2.00;;
15899;SDS011;8048;50.644;6.184;2022-11-15T08:03:14;2.20;;;2.10;;
15899;SDS011;8048;50.644;6.184;2022-11-15T08:05:41;2.13;;;2.03;;
15899;SDS011;8048;50.644;6.184;2022-11-15T08:08:08;2.60;;;2.40;;
15899;SDS011;8048;50.644;6.184;2022-11-15T08:10:35;2.53;;;2.33;;
15899;SDS011;8048;50.644;6.184;2022-11-15T08:13:02;2.70;;;2.50;;
15899;SDS011;8048;50.644;6.184;2022-11-15T08:15:29;3.10;;;2.40;;
15899;SDS011;8048;50.644;6.184;2022-11-15T08:17:56;2.83;;;2.70;;
15899;SDS011;8048;50.644;6.184;2022-11-15T08:20:24;2.30;;;2.17;;
15899;SDS011;8048;50.644;6.184;2022-11-15T08:22:51;2.60;;;2.30;;
15899;SDS011;8048;50.644;6.184;2022-11-15T08:25:17;2.73;;;2.53;;
15899;SDS011;8048;50.644;6.184;2022-11-15T08:27:43;2.20;;;2.10;;
15899;SDS011;8048;50.644;6.184;2022-11-15T08:30:08;2.10;;;1.90;;
15899;SDS011;8048;50.644;6.184;2022-11-15T08:32:34;2.37;;;2.27;;
15899;SDS011;8048;50.644;6.184;2022-11-15T08:35:00;2.00;;;1.90;;
15899;SDS011;8048;50.644;6.184;2022-11-15T08:37:25;4.13;;;2.13;;
15899;SDS011;8048;50.644;6.184;2022-11-15T08:39:51;2.10;;;2.00;;
15899;SDS011;8048;50.644;6.184;2022-11-15T08:42:16;3.10;;;2.33;;
15899;SDS011;8048;50.644;6.184;2022-11-15T08:44:42;2.70;;;2.50;;
15899;SDS011;8048;50.644;6.184;2022-11-15T08:47:09;3.10;;;1.97;;
15899;SDS011;8048;50.644;6.184;2022-11-15T08:49:36;2.43;;;2.23;;
15899;SDS011;8048;50.644;6.184;2022-11-15T08:52:02;2.20;;;2.10;;
15899;SDS011;8048;50.644;6.184;2022-11-15T08:54:27;2.10;;;2.00;;
15899;SDS011;8048;50.644;6.184;2022-11-15T08:56:53;2.13;;;1.80;;
15899;SDS011;8048;50.644;6.184;2022-11-15T08:59:18;2.20;;;2.00;;
15899;SDS011;8048;50.644;6.184;2022-11-15T09:01:44;3.07;;;1.80;;
15899;SDS011;8048;50.644;6.184;2022-11-15T09:04:09;1.63;;;1.63;;
15899;SDS011;8048;50.644;6.184;2022-11-15T09:06:35;1.70;;;1.70;;
15899;SDS011;8048;50.644;6.184;2022-11-15T09:09:00;2.10;;;1.90;;
15899;SDS011;8048;50.644;6.184;2022-11-15T09:11:26;2.07;;;1.93;;
15899;SDS011;8048;50.644;6.184;2022-11-15T09:13:52;2.60;;;2.00;;
15899;SDS011;8048;50.644;6.184;2022-11-15T09:16:17;2.00;;;1.90;;
15899;SDS011;8048;50.644;6.184;2022-11-15T09:18:43;3.97;;;1.90;;
15899;SDS011;8048;50.644;6.184;2022-11-15T09:21:09;2.17;;;1.97;;
15899;SDS011;8048;50.644;6.184;2022-11-15T09:23:35;2.30;;;2.20;;
15899;SDS011;8048;50.644;6.184;2022-11-15T09:26:01;5.23;;;2.30;;
15899;SDS011;8048;50.644;6.184;2022-11-15T09:28:28;2.30;;;2.10;;
15899;SDS011;8048;50.644;6.184;2022-11-15T09:30:58;1.80;;;1.70;;
15899;SDS011;8048;50.644;6.184;2022-11-15T09:33:25;1.80;;;1.70;;
15899;SDS011;8048;50.644;6.184;2022-11-15T09:35:51;1.90;;;1.80;;
15899;SDS011;8048;50.644;6.184;2022-11-15T09:38:16;1.90;;;1.80;;
15899;SDS011;8048;50.644;6.184;2022-11-15T09:40:42;2.43;;;2.33;;
15899;SDS011;8048;50.644;6.184;2022-11-15T09:43:24;1.53;;;1.53;;
15899;SDS011;8048;50.644;6.184;2022-11-15T09:46:30;1.77;;;1.77;;
15899;SDS011;8048;50.644;6.184;2022-11-15T09:49:01;2.43;;;2.33;;
15899;SDS011;8048;50.644;6.184;2022-11-15T09:51:28;2.57;;;2.20;;
15899;SDS011;8048;50.644;6.184;2022-11-15T09:54:04;2.07;;;1.97;;
15899;SDS011;8048;50.644;6.184;2022-11-15T09:56:44;1.97;;;1.87;;
15899;SDS011;8048;50.644;6.184;2022-11-15T10:05:10;2.03;;;1.93;;
15899;SDS011;8048;50.644;6.184;2022-11-15T10:10:27;2.10;;;1.90;;
15899;SDS011;8048;50.644;6.184;2022-11-15T10:13:04;3.37;;;1.90;;
15899;SDS011;8048;50.644;6.184;2022-11-15T10:15:29;2.00;;;1.90;;
15899;SDS011;8048;50.644;6.184;2022-11-15T10:20:57;3.03;;;2.00;;
15899;SDS011;8048;50.644;6.184;2022-11-15T10:23:25;2.87;;;2.70;;
15899;SDS011;8048;50.644;6.184;2022-11-15T10:25:53;1.90;;;1.80;;
15899;SDS011;8048;50.644;6.184;2022-11-15T10:28:22;2.07;;;1.97;;
15899;SDS011;8048;50.644;6.184;2022-11-15T10:30:53;4.17;;;1.87;;
15899;SDS011;8048;50.644;6.184;2022-11-15T10:33:23;1.97;;;1.90;;
15899;SDS011;8048;50.644;6.184;2022-11-15T10:41:22;3.90;;;2.97;;
15899;SDS011;8048;50.644;6.184;2022-11-15T10:46:32;4.87;;;1.77;;
15899;SDS011;8048;50.644;6.184;2022-11-15T10:49:11;1.70;;;1.70;;
15899;SDS011;8048;50.644;6.184;2022-11-15T10:51:45;2.43;;;2.17;;
15899;SDS011;8048;50.644;6.184;2022-11-15T10:54:27;2.10;;;2.00;;
15899;SDS011;8048;50.644;6.184;2022-11-15T10:56:54;1.60;;;1.60;;
15899;SDS011;8048;50.644;6.184;2022-11-15T10:59:27;1.37;;;1.37;;
15899;SDS011;8048;50.644;6.184;2022-11-15T11:02:00;2.63;;;2.53;;
15899;SDS011;8048;50.644;6.184;2022-11-15T11:04:26;1.90;;;1.80;;
15899;SDS011;8048;50.644;6.184;2022-11-15T11:06:52;2.43;;;2.00;;
15899;SDS011;8048;50.644;6.184;2022-11-15T11:09:31;3.83;;;1.93;;
15899;SDS011;8048;50.644;6.184;2022-11-15T11:11:58;2.27;;;2.17;;
15899;SDS011;8048;50.644;6.184;2022-11-15T11:14:26;1.70;;;1.60;;
15899;SDS011;8048;50.644;6.184;2022-11-15T11:17:02;2.80;;;1.90;;
15899;SDS011;8048;50.644;6.184;2022-11-15T11:42:59;2.70;;;2.50;;
15899;SDS011;8048;50.644;6.184;2022-11-15T11:46:08;2.20;;;2.03;;
15899;SDS011;8048;50.644;6.184;2022-11-15T11:53:57;2.40;;;2.27;;
15899;SDS011;8048;50.644;6.184;2022-11-15T11:56:29;2.70;;;2.30;;
15899;SDS011;8048;50.644;6.184;2022-11-15T12:00:01;2.00;;;1.90;;
15899;SDS011;8048;50.644;6.184;2022-11-15T12:02:11;2.13;;;2.03;;
15899;SDS011;8048;50.644;6.184;2022-11-15T12:04:45;2.40;;;2.30;;
15899;SDS011;8048;50.644;6.184;2022-11-15T12:09:44;2.37;;;2.27;;
15899;SDS011;8048;50.644;6.184;2022-11-15T12:14:55;2.40;;;2.30;;
15899;SDS011;8048;50.644;6.184;2022-11-15T12:17:30;2.10;;;2.00;;
15899;SDS011;8048;50.644;6.184;2022-11-15T12:20:00;2.00;;;1.90;;
15899;SDS011;8048;50.644;6.184;2022-11-15T12:22:38;4.70;;;2.43;;
15899;SDS011;8048;50.644;6.184;2022-11-15T12:25:13;2.50;;;2.30;;
15899;SDS011;8048;50.644;6.184;2022-11-15T12:27:45;2.33;;;2.10;;
15899;SDS011;8048;50.644;6.184;2022-11-15T12:30:16;2.60;;;2.40;;
15899;SDS011;8048;50.644;6.184;2022-11-15T12:32:49;2.17;;;2.00;;
15899;SDS011;8048;50.644;6.184;2022-11-15T12:35:34;2.53;;;2.33;;
15899;SDS011;8048;50.644;6.184;2022-11-15T12:37:59;1.97;;;1.87;;
15899;SDS011;8048;50.644;6.184;2022-11-15T12:45:34;2.30;;;1.80;;
15899;SDS011;8048;50.644;6.184;2022-11-15T12:56:09;2.00;;;1.90;;
15899;SDS011;8048;50.644;6.184;2022-11-15T12:58:48;2.20;;;2.20;;
15899;SDS011;8048;50.644;6.184;2022-11-15T13:06:41;2.20;;;2.10;;
15899;SDS011;8048;50.644;6.184;2022-11-15T13:17:54;1.90;;;1.80;;
15899;SDS011;8048;50.644;6.184;2022-11-15T13:20:25;1.93;;;1.83;;
15899;SDS011;8048;50.644;6.184;2022-11-15T13:23:00;3.13;;;2.20;;
15899;SDS011;8048;50.644;6.184;2022-11-15T13:28:01;2.30;;;2.10;;
15899;SDS011;8048;50.644;6.184;2022-11-15T13:30:34;5.93;;;2.77;;
15899;SDS011;8048;50.644;6.184;2022-11-15T13:33:07;2.40;;;2.30;;
15899;SDS011;8048;50.644;6.184;2022-11-15T13:35:38;2.27;;;2.07;;
15899;SDS011;8048;50.644;6.184;2022-11-15T13:38:05;4.77;;;2.40;;
15899;SDS011;8048;50.644;6.184;2022-11-15T13:40:35;5.37;;;4.87;;
15899;SDS011;8048;50.644;6.184;2022-11-15T13:43:25;3.10;;;2.90;;
15899;SDS011;8048;50.644;6.184;2022-11-15T13:48:41;3.67;;;3.10;;
15899;SDS011;8048;50.644;6.184;2022-11-15T13:51:15;2.80;;;2.60;;
15899;SDS011;8048;50.644;6.184;2022-11-15T13:56:33;5.13;;;4.67;;
15899;SDS011;8048;50.644;6.184;2022-11-15T13:59:00;3.23;;;3.03;;
15899;SDS011;8048;50.644;6.184;2022-11-15T14:01:33;5.17;;;4.77;;
15899;SDS011;8048;50.644;6.184;2022-11-15T14:03:59;2.80;;;2.60;;
15899;SDS011;8048;50.644;6.184;2022-11-15T14:06:27;4.13;;;3.80;;
15899;SDS011;8048;50.644;6.184;2022-11-15T14:11:34;2.27;;;1.90;;
15899;SDS011;8048;50.644;6.184;2022-11-15T14:19:50;2.53;;;2.43;;
15899;SDS011;8048;50.644;6.184;2022-11-15T14:24:46;2.30;;;2.20;;
15899;SDS011;8048;50.644;6.184;2022-11-15T14:27:30;2.50;;;2.30;;
15899;SDS011;8048;50.644;6.184;2022-11-15T14:29:56;2.37;;;2.10;;
15899;SDS011;8048;50.644;6.184;2022-11-15T14:32:26;3.20;;;2.40;;
15899;SDS011;8048;50.644;6.184;2022-11-15T14:34:54;2.43;;;2.33;;
15899;SDS011;8048;50.644;6.184;2022-11-15T14:37:21;1.90;;;1.80;;
15899;SDS011;8048;50.644;6.184;2022-11-15T14:39:51;2.00;;;1.90;;
15899;SDS011;8048;50.644;6.184;2022-11-15T14:42:18;2.20;;;2.10;;
15899;SDS011;8048;50.644;6.184;2022-11-15T14:44:44;2.73;;;2.53;;
15899;SDS011;8048;50.644;6.184;2022-11-15T14:47:10;2.50;;;2.40;;
15899;SDS011;8048;50.644;6.184;2022-11-15T14:49:35;3.90;;;2.53;;
15899;SDS011;8048;50.644;6.184;2022-11-15T14:52:01;3.40;;;2.57;;
15899;SDS011;8048;50.644;6.184;2022-11-15T14:54:26;2.73;;;2.53;;
15899;SDS011;8048;50.644;6.184;2022-11-15T14:56:52;2.43;;;2.33;;
15899;SDS011;8048;50.644;6.184;2022-11-15T14:59:17;2.10;;;2.00;;
15899;SDS011;8048;50.644;6.184;2022-11-15T15:01:43;4.93;;;2.70;;
15899;SDS011;8048;50.644;6.184;2022-11-15T15:04:09;3.00;;;2.90;;
15899;SDS011;8048;50.644;6.184;2022-11-15T15:06:35;4.00;;;2.37;;
15899;SDS011;8048;50.644;6.184;2022-11-15T15:09:01;3.93;;;2.03;;
15899;SDS011;8048;50.644;6.184;2022-11-15T15:11:27;2.50;;;2.40;;
15899;SDS011;8048;50.644;6.184;2022-11-15T15:13:55;2.60;;;2.43;;
15899;SDS011;8048;50.644;6.184;2022-11-15T15:16:23;1.97;;;1.87;;
15899;SDS011;8048;50.644;6.184;2022-11-15T15:18:49;2.20;;;2.10;;
15899;SDS011;8048;50.644;6.184;2022-11-15T15:21:22;2.47;;;2.30;;
15899;SDS011;8048;50.644;6.184;2022-11-15T15:23:48;2.37;;;2.17;;
15899;SDS011;8048;50.644;6.184;2022-11-15T15:26:14;2.10;;;2.00;;
15899;SDS011;8048;50.644;6.184;2022-11-15T15:28:40;1.70;;;1.70;;
15899;SDS011;8048;50.644;6.184;2022-11-15T15:31:05;2.27;;;2.17;;
15899;SDS011;8048;50.644;6.184;2022-11-15T15:33:32;2.40;;;2.00;;
15899;SDS011;8048;50.644;6.184;2022-11-15T15:35:57;2.93;;;2.73;;
15899;SDS011;8048;50.644;6.184;2022-11-15T15:38:24;2.30;;;2.20;;
15899;SDS011;8048;50.644;6.184;2022-11-15T15:40:49;2.77;;;2.57;;
15899;SDS011;8048;50.644;6.184;2022-11-15T15:43:15;2.20;;;2.03;;
15899;SDS011;8048;50.644;6.184;2022-11-15T15:45:41;3.00;;;2.80;;
15899;SDS011;8048;50.644;6.184;2022-11-15T15:48:11;3.70;;;3.33;;
15899;SDS011;8048;50.644;6.184;2022-11-15T15:50:38;2.83;;;2.63;;
15899;SDS011;8048;50.644;6.184;2022-11-15T15:53:04;2.40;;;2.30;;
15899;SDS011;8048;50.644;6.184;2022-11-15T15:55:30;4.30;;;3.07;;
15899;SDS011;8048;50.644;6.184;2022-11-15T15:57:56;3.07;;;2.80;;
15899;SDS011;8048;50.644;6.184;2022-11-15T16:00:22;2.30;;;2.20;;
15899;SDS011;8048;50.644;6.184;2022-11-15T16:02:49;2.37;;;2.27;;
15899;SDS011;8048;50.644;6.184;2022-11-15T16:05:16;2.53;;;2.43;;
15899;SDS011;8048;50.644;6.184;2022-11-15T16:07:42;2.67;;;2.50;;
15899;SDS011;8048;50.644;6.184;2022-11-15T16:10:19;3.10;;;2.90;;
15899;SDS011;8048;50.644;6.184;2022-11-15T16:12:52;3.23;;;3.00;;
15899;SDS011;8048;50.644;6.184;2022-11-15T16:15:19;5.00;;;4.60;;
15899;SDS011;8048;50.644;6.184;2022-11-15T16:17:55;12.77;;;8.10;;
15899;SDS011;8048;50.644;6.184;2022-11-15T16:20:33;3.57;;;3.27;;
15899;SDS011;8048;50.644;6.184;2022-11-15T16:22:59;5.30;;;4.80;;
15899;SDS011;8048;50.644;6.184;2022-11-15T16:25:25;4.83;;;3.93;;
15899;SDS011;8048;50.644;6.184;2022-11-15T16:27:51;4.40;;;3.23;;
15899;SDS011;8048;50.644;6.184;2022-11-15T16:30:17;3.60;;;3.40;;
15899;SDS011;8048;50.644;6.184;2022-11-15T16:32:44;2.30;;;2.10;;
15899;SDS011;8048;50.644;6.184;2022-11-15T16:35:10;2.60;;;2.50;;
15899;SDS011;8048;50.644;6.184;2022-11-15T16:37:37;2.63;;;2.43;;
15899;SDS011;8048;50.644;6.184;2022-11-15T16:40:09;2.67;;;2.57;;
15899;SDS011;8048;50.644;6.184;2022-11-15T16:42:36;2.93;;;2.60;;
15899;SDS011;8048;50.644;6.184;2022-11-15T16:45:01;5.17;;;2.70;;
15899;SDS011;8048;50.644;6.184;2022-11-15T16:47:27;3.37;;;3.13;;
15899;SDS011;8048;50.644;6.184;2022-11-15T16:49:52;4.27;;;3.30;;
15899;SDS011;8048;50.644;6.184;2022-11-15T16:52:18;3.90;;;3.70;;
15899;SDS011;8048;50.644;6.184;2022-11-15T16:54:43;3.37;;;3.17;;
15899;SDS011;8048;50.644;6.184;2022-11-15T16:57:09;3.53;;;3.30;;
15899;SDS011;8048;50.644;6.184;2022-11-15T16:59:35;3.80;;;3.50;;
15899;SDS011;8048;50.644;6.184;2022-11-15T17:02:01;3.77;;;3.57;;
15899;SDS011;8048;50.644;6.184;2022-11-15T17:04:26;4.33;;;4.03;;
15899;SDS011;8048;50.644;6.184;2022-11-15T17:06:56;6.23;;;5.87;;
15899;SDS011;8048;50.644;6.184;2022-11-15T17:09:22;4.63;;;4.30;;
15899;SDS011;8048;50.644;6.184;2022-11-15T17:11:50;3.63;;;3.43;;
15899;SDS011;8048;50.644;6.184;2022-11-15T17:14:16;3.87;;;3.57;;
15899;SDS011;8048;50.644;6.184;2022-11-15T17:16:42;4.40;;;4.10;;
15899;SDS011;8048;50.644;6.184;2022-11-15T17:19:16;4.83;;;4.30;;